Time;durP1;ratioP1;P1;durP2;ratioP2;P2;SDS_P1;SDS_P2;PMS_P1;PMS_P2;Temp;Humidity;BMP_temperature;BMP_pressure;BME280_temperature;BME280_humidity;BME280_pressure;Samples;Min_cycle;Max_cycle;Signal;HPM_P1;HPM_P2
2022/03/26 00:00:11;;;;;;;;;;;;;;;;;;4994104;28;1137;-71
2022/03/26 00:02:37;;;;;;;;;;;;;;;;;;5011395;28;1047;-70
2022/03/26 00:05:03;;;;;;;;;;;;;;;;;;5011222;28;1419;-70
2022/03/26 00:07:31;;;;;;;;;;;;;;;;;;5010766;28;785;-71
2022/03/26 00:09:57;;;;;;;;;;;;;;;;;;5011016;28;1058;-71
2022/03/26 00:12:23;;;;;;;;;;;;;;;;;;5011278;28;1918;-71
2022/03/26 00:14:49;;;;;;;;;;;;;;;;;;4993679;28;1326;-70
2022/03/26 00:17:16;;;;;;;;;;;;;;;;;;5010921;28;963;-70
2022/03/26 00:19:42;;;;;;;;;;;;;;;;;;5011362;28;1094;-70
2022/03/26 00:22:08;;;;;;;;;;;;;;;;;;5011061;28;884;-71
2022/03/26 00:24:35;;;;;;;;;;;;;;;;;;5011189;28;1412;-70
2022/03/26 00:27:02;;;;;;;;;;;;;;;;;;5010837;28;892;-70
2022/03/26 00:29:28;;;;;;;;;;;;;;;;;;4993686;28;1192;-70
2022/03/26 00:31:55;;;;;;;;;;;;;;;;;;4993375;28;1915;-71
2022/03/26 00:34:21;;;;;;;;;;;;;;;;;;5011518;28;1368;-70
2022/03/26 00:36:47;;;;;;;;;;;;;;;;;;5011047;28;788;-71
2022/03/26 00:39:13;;;;;;;;;;;;;;;;;;5011123;28;1082;-71
2022/03/26 00:41:41;;;;;;;;;;;;;;;;;;5011055;28;982;-71
2022/03/26 00:44:07;;;;;;;;;;;;;;;;;;4993171;28;1427;-70
2022/03/26 00:46:33;;;;;;;;;;;;;;;;;;5010560;28;813;-70
2022/03/26 00:49:00;;;;;;;;;;;;;;;;;;5011095;28;1137;-70
2022/03/26 00:51:26;;;;;;;;;;;;;;;;;;5011322;28;1974;-71
2022/03/26 00:53:52;;;;;;;;;;;;;;;;;;4993284;28;1380;-69
2022/03/26 00:56:18;;;;;;;;;;;;;;;;;;5013318;28;1615;-70
2022/03/26 00:58:46;;;;;;;;;;;;;;;;;;5012375;28;1571;-70
2022/03/26 01:01:12;;;;;;;;;;;;;;;;;;5011008;28;959;-70
2022/03/26 01:03:38;;;;;;;;;;;;;;;;;;4992965;28;1346;-70
2022/03/26 01:06:05;;;;;;;;;;;;;;;;;;5010797;28;1074;-70
2022/03/26 01:08:31;;;;;;;;;;;;;;;;;;5010870;28;793;-71
2022/03/26 01:10:58;;;;;;;;;;;;;;;;;;5010665;28;1077;-71
2022/03/26 01:13:25;;;;;;;;;;;;;;;;;;5010684;28;2043;-70
2022/03/26 01:15:52;;;;;;;;;;;;;;;;;;4993044;28;1395;-71
2022/03/26 01:18:19;;;;;;;;;;;;;;;;;;5012234;28;837;-71
2022/03/26 01:20:45;;;;;;;;;;;;;;;;;;4996927;28;1321;-70
2022/03/26 01:23:11;;;;;;;;;;;;;;;;;;5014081;28;1306;-71
2022/03/26 01:25:38;;;;;;;;;;;;;;;;;;5014768;28;979;-70
2022/03/26 01:28:04;;;;;;;;;;;;;;;;;;5013909;28;939;-71
2022/03/26 01:30:30;;;;;;;;;;;;;;;;;;5014317;28;782;-70
2022/03/26 01:32:58;;;;;;;;;;;;;;;;;;4996512;28;1919;-71
2022/03/26 01:35:24;;;;;;;;;;;;;;;;;;5014551;28;920;-71
2022/03/26 01:37:50;;;;;;;;;;;;;;;;;;5013909;28;1054;-71
2022/03/26 01:40:16;;;;;;;;;;;;;;;;;;5013394;28;781;-70
2022/03/26 01:42:42;;;;;;;;;;;;;;;;;;5013748;28;1074;-70
2022/03/26 01:45:10;;;;;;;;;;;;;;;;;;5013947;28;1276;-70
2022/03/26 01:47:37;;;;;;;;;;;;;;;;;;5013736;28;852;-69
2022/03/26 01:50:05;;;;;;;;;;;;;;;;;;5014203;28;1078;-71
2022/03/26 01:52:31;;;;;;;;;;;;;;;;;;4996974;28;1982;-71
2022/03/26 01:54:57;;;;;;;;;;;;;;;;;;5018454;28;1393;-70
2022/03/26 01:57:24;;;;;;;;;;;;;;;;;;5019502;28;968;-70
2022/03/26 01:59:50;;;;;;;;;;;;;;;;;;5013599;28;1094;-70
2022/03/26 02:02:16;;;;;;;;;;;;;;;;;;5013678;28;1039;-71
2022/03/26 02:04:42;;;;;;;;;;;;;;;;;;5013727;28;1371;-71
2022/03/26 02:07:10;;;;;;;;;;;;;;;;;;5013230;28;1082;-70
2022/03/26 02:09:36;;;;;;;;;;;;;;;;;;4996035;28;1172;-71
2022/03/26 02:12:03;;;;;;;;;;;;;;;;;;5013413;28;1980;-70
2022/03/26 02:14:29;;;;;;;;;;;;;;;;;;5013396;28;1266;-71
2022/03/26 02:16:56;;;;;;;;;;;;;;;;;;4995185;28;1188;-71
2022/03/26 02:19:22;;;;;;;;;;;;;;;;;;5013196;28;1053;-70
2022/03/26 02:21:49;;;;;;;;;;;;;;;;;;5013277;28;896;-71
2022/03/26 02:24:16;;;;;;;;;;;;;;;;;;5013084;28;1387;-70
2022/03/26 02:26:42;;;;;;;;;;;;;;;;;;5013040;28;746;-70
2022/03/26 02:29:09;;;;;;;;;;;;;;;;;;5012828;28;967;-71
2022/03/26 02:31:35;;;;;;;;;;;;;;;;;;5013099;28;1910;-71
2022/03/26 02:34:01;;;;;;;;;;;;;;;;;;5012865;28;1370;-71
2022/03/26 02:36:28;;;;;;;;;;;;;;;;;;5012771;28;850;-70
2022/03/26 02:38:55;;;;;;;;;;;;;;;;;;5013019;28;861;-70
2022/03/26 02:41:21;;;;;;;;;;;;;;;;;;5012796;28;1066;-71
2022/03/26 02:43:48;;;;;;;;;;;;;;;;;;5012852;28;1331;-71
2022/03/26 02:46:14;;;;;;;;;;;;;;;;;;5012480;28;1066;-70
2022/03/26 02:48:42;;;;;;;;;;;;;;;;;;5012726;28;994;-70
2022/03/26 02:51:08;;;;;;;;;;;;;;;;;;5014933;28;1685;-69
2022/03/26 02:53:35;;;;;;;;;;;;;;;;;;5030616;28;1923;-72
2022/03/26 02:56:02;;;;;;;;;;;;;;;;;;5042574;28;1190;-70
2022/03/26 02:58:28;;;;;;;;;;;;;;;;;;5038816;28;1273;-70
2022/03/26 03:00:55;;;;;;;;;;;;;;;;;;5032204;28;1109;-70
2022/03/26 03:03:21;;;;;;;;;;;;;;;;;;5032260;28;1312;-71
2022/03/26 03:05:47;;;;;;;;;;;;;;;;;;5032243;28;888;-70
2022/03/26 03:08:14;;;;;;;;;;;;;;;;;;5014148;28;1164;-70
2022/03/26 03:10:40;;;;;;;;;;;;;;;;;;5032258;28;1241;-71
2022/03/26 03:13:08;;;;;;;;;;;;;;;;;;5031649;28;1922;-70
2022/03/26 03:15:35;;;;;;;;;;;;;;;;;;5032315;28;1014;-70
2022/03/26 03:18:02;;;;;;;;;;;;;;;;;;5014324;28;1354;-71
2022/03/26 03:20:29;;;;;;;;;;;;;;;;;;5032024;28;1074;-70
2022/03/26 03:22:56;;;;;;;;;;;;;;;;;;5031844;28;1262;-71
2022/03/26 03:25:25;;;;;;;;;;;;;;;;;;5032060;28;1110;-71
2022/03/26 03:27:51;;;;;;;;;;;;;;;;;;5031927;28;1078;-71
2022/03/26 03:30:19;;;;;;;;;;;;;;;;;;5031493;28;944;-70
2022/03/26 03:32:45;;;;;;;;;;;;;;;;;;5031683;28;1981;-71
2022/03/26 03:35:11;;;;;;;;;;;;;;;;;;5031897;28;1432;-70
2022/03/26 03:37:38;;;;;;;;;;;;;;;;;;5031479;28;907;-70
2022/03/26 03:40:05;;;;;;;;;;;;;;;;;;5013414;28;1117;-70
2022/03/26 03:42:31;;;;;;;;;;;;;;;;;;5031428;28;1054;-70
2022/03/26 03:44:57;;;;;;;;;;;;;;;;;;5013743;28;1423;-71
2022/03/26 03:47:25;;;;;;;;;;;;;;;;;;5013061;28;1248;-71
2022/03/26 03:49:51;;;;;;;;;;;;;;;;;;5031533;28;1137;-70
2022/03/26 03:52:17;;;;;;;;;;;;;;;;;;5031595;28;1973;-71
2022/03/26 03:54:44;;;;;;;;;;;;;;;;;;5031236;28;1301;-70
2022/03/26 03:57:10;;;;;;;;;;;;;;;;;;5031087;28;1059;-71
2022/03/26 03:59:40;;;;;;;;;;;;;;;;;;5031313;28;1062;-71
2022/03/26 04:02:08;;;;;;;;;;;;;;;;;;5031318;28;1307;-71
2022/03/26 04:04:35;;;;;;;;;;;;;;;;;;5013339;28;1270;-70
2022/03/26 04:07:01;;;;;;;;;;;;;;;;;;5030842;28;1022;-71
2022/03/26 04:09:27;;;;;;;;;;;;;;;;;;5031305;28;900;-71
2022/03/26 04:11:54;;;;;;;;;;;;;;;;;;5031028;28;1136;-70
2022/03/26 04:14:20;;;;;;;;;;;;;;;;;;5030997;28;1984;-70
2022/03/26 04:16:46;;;;;;;;;;;;;;;;;;5030708;28;1066;-70
2022/03/26 04:19:13;;;;;;;;;;;;;;;;;;5030967;28;1100;-71
2022/03/26 04:21:40;;;;;;;;;;;;;;;;;;5030866;28;883;-70
2022/03/26 04:24:07;;;;;;;;;;;;;;;;;;5031831;28;1352;-71
2022/03/26 04:26:33;;;;;;;;;;;;;;;;;;5030793;28;1070;-71
2022/03/26 04:29:01;;;;;;;;;;;;;;;;;;5030945;28;849;-71
2022/03/26 04:31:28;;;;;;;;;;;;;;;;;;5013377;28;1229;-71
2022/03/26 04:33:54;;;;;;;;;;;;;;;;;;5030711;28;1919;-71
2022/03/26 04:36:20;;;;;;;;;;;;;;;;;;5030774;28;1018;-70
2022/03/26 04:38:48;;;;;;;;;;;;;;;;;;5031089;28;919;-70
2022/03/26 04:41:14;;;;;;;;;;;;;;;;;;5029057;28;1503;-69
2022/03/26 04:43:40;;;;;;;;;;;;;;;;;;5013130;28;1381;-70
2022/03/26 04:46:08;;;;;;;;;;;;;;;;;;5019403;28;1105;-70
2022/03/26 04:48:34;;;;;;;;;;;;;;;;;;5033263;28;1269;-70
2022/03/26 04:51:01;;;;;;;;;;;;;;;;;;5012868;28;1196;-70
2022/03/26 04:53:27;;;;;;;;;;;;;;;;;;5032769;28;1914;-71
2022/03/26 04:55:54;;;;;;;;;;;;;;;;;;5034576;28;999;-71
2022/03/26 04:58:20;;;;;;;;;;;;;;;;;;5034543;28;1136;-70
2022/03/26 05:00:47;;;;;;;;;;;;;;;;;;5034415;28;970;-69
2022/03/26 05:03:13;;;;;;;;;;;;;;;;;;5034429;28;1290;-71
2022/03/26 05:05:39;;;;;;;;;;;;;;;;;;5034435;28;936;-70
2022/03/26 05:08:05;;;;;;;;;;;;;;;;;;5033995;28;1062;-71
2022/03/26 05:10:32;;;;;;;;;;;;;;;;;;5034670;28;859;-70
2022/03/26 05:12:59;;;;;;;;;;;;;;;;;;5034225;28;1918;-70
2022/03/26 05:15:27;;;;;;;;;;;;;;;;;;5034098;28;950;-70
2022/03/26 05:17:53;;;;;;;;;;;;;;;;;;5033796;28;989;-69
2022/03/26 05:20:19;;;;;;;;;;;;;;;;;;5034327;28;1058;-71
2022/03/26 05:22:46;;;;;;;;;;;;;;;;;;5034388;28;943;-71
2022/03/26 05:25:12;;;;;;;;;;;;;;;;;;5033888;28;1322;-71
2022/03/26 05:27:39;;;;;;;;;;;;;;;;;;5033844;28;793;-70
2022/03/26 05:30:07;;;;;;;;;;;;;;;;;;5033865;28;868;-71
2022/03/26 05:32:34;;;;;;;;;;;;;;;;;;5033957;28;1910;-71
2022/03/26 05:35:00;;;;;;;;;;;;;;;;;;5033666;28;1330;-70
2022/03/26 05:37:26;;;;;;;;;;;;;;;;;;5033587;28;861;-71
2022/03/26 05:39:52;;;;;;;;;;;;;;;;;;5033997;28;738;-71
2022/03/26 05:42:19;;;;;;;;;;;;;;;;;;5033814;28;1334;-71
2022/03/26 05:44:45;;;;;;;;;;;;;;;;;;5033925;28;1324;-71
2022/03/26 05:47:12;;;;;;;;;;;;;;;;;;5033668;28;1186;-71
2022/03/26 05:49:39;;;;;;;;;;;;;;;;;;5033310;28;923;-70
2022/03/26 05:52:05;;;;;;;;;;;;;;;;;;5028344;28;1552;-71
2022/03/26 05:54:31;;;;;;;;;;;;;;;;;;5033163;28;1914;-71
2022/03/26 05:56:58;;;;;;;;;;;;;;;;;;5034876;28;1477;-71
2022/03/26 05:59:24;;;;;;;;;;;;;;;;;;5033794;28;1139;-70
2022/03/26 06:01:52;;;;;;;;;;;;;;;;;;5033055;28;1135;-71
2022/03/26 06:04:19;;;;;;;;;;;;;;;;;;5033075;28;1306;-70
2022/03/26 06:06:47;;;;;;;;;;;;;;;;;;5033133;28;1014;-71
2022/03/26 06:09:13;;;;;;;;;;;;;;;;;;5015589;28;1204;-71
2022/03/26 06:11:39;;;;;;;;;;;;;;;;;;5032683;28;1260;-70
2022/03/26 06:14:06;;;;;;;;;;;;;;;;;;5033104;28;1915;-70
2022/03/26 06:16:33;;;;;;;;;;;;;;;;;;5033142;28;1125;-71
2022/03/26 06:18:59;;;;;;;;;;;;;;;;;;5015421;28;1224;-71
2022/03/26 06:21:28;;;;;;;;;;;;;;;;;;5033228;28;1110;-70
2022/03/26 06:23:55;;;;;;;;;;;;;;;;;;5032836;28;1301;-70
2022/03/26 06:26:22;;;;;;;;;;;;;;;;;;5037355;28;1266;-71
2022/03/26 06:28:48;;;;;;;;;;;;;;;;;;5026902;28;1347;-70
2022/03/26 06:31:14;;;;;;;;;;;;;;;;;;5052853;28;1062;-71
2022/03/26 06:33:40;;;;;;;;;;;;;;;;;;5053111;28;1922;-71
2022/03/26 06:36:06;;;;;;;;;;;;;;;;;;5034824;28;1148;-71
2022/03/26 06:38:38;;;;;;;;;;;;;;;;;;5049262;28;1491;-71
2022/03/26 06:41:05;;;;;;;;;;;;;;;;;;5015018;28;1472;-71
2022/03/26 06:43:31;;;;;;;;;;;;;;;;;;5020166;28;1893;-71
2022/03/26 06:45:57;;;;;;;;;;;;;;;;;;5012689;28;1157;-71
2022/03/26 06:48:24;;;;;;;;;;;;;;;;;;5012640;28;904;-71
2022/03/26 06:50:50;;;;;;;;;;;;;;;;;;5013871;28;1635;-71
2022/03/26 06:53:17;;;;;;;;;;;;;;;;;;5025000;28;1952;-71
2022/03/26 06:55:44;;;;;;;;;;;;;;;;;;5031036;28;1608;-71
2022/03/26 06:58:10;;;;;;;;;;;;;;;;;;5002106;28;1561;-71
2022/03/26 07:00:36;;;;;;;;;;;;;;;;;;5012903;28;852;-71
2022/03/26 07:03:03;;;;;;;;;;;;;;;;;;5012342;28;1381;-71
2022/03/26 07:05:29;;;;;;;;;;;;;;;;;;5012574;28;1090;-71
2022/03/26 07:07:56;;;;;;;;;;;;;;;;;;5013179;28;1607;-72
2022/03/26 07:10:23;;;;;;;;;;;;;;;;;;5013685;28;1697;-72
2022/03/26 07:12:50;;;;;;;;;;;;;;;;;;5026746;28;1608;-72
2022/03/26 07:15:17;;;;;;;;;;;;;;;;;;5030940;28;1989;-72
2022/03/26 07:17:43;;;;;;;;;;;;;;;;;;5031760;28;1074;-71
2022/03/26 07:20:09;;;;;;;;;;;;;;;;;;5020845;28;1579;-71
2022/03/26 07:22:36;;;;;;;;;;;;;;;;;;5012361;28;1007;-72
2022/03/26 07:25:04;;;;;;;;;;;;;;;;;;5011976;28;1287;-71
2022/03/26 07:27:30;;;;;;;;;;;;;;;;;;5011909;28;1062;-72
2022/03/26 07:29:58;;;;;;;;;;;;;;;;;;5013187;28;1666;-71
2022/03/26 07:32:25;;;;;;;;;;;;;;;;;;5029240;28;2173;-72
2022/03/26 07:34:52;;;;;;;;;;;;;;;;;;5032051;28;1907;-71
2022/03/26 07:37:18;;;;;;;;;;;;;;;;;;5032643;28;1066;-71
2022/03/26 07:39:44;;;;;;;;;;;;;;;;;;5029474;28;1660;-71
2022/03/26 07:42:10;;;;;;;;;;;;;;;;;;5011997;28;852;-72
2022/03/26 07:44:36;;;;;;;;;;;;;;;;;;5011701;28;1372;-71
2022/03/26 07:47:04;;;;;;;;;;;;;;;;;;5011610;28;719;-71
2022/03/26 07:49:30;;;;;;;;;;;;;;;;;;5012953;28;1619;-70
2022/03/26 07:51:57;;;;;;;;;;;;;;;;;;5026736;28;1294;-70
2022/03/26 07:54:23;;;;;;;;;;;;;;;;;;5012491;28;1989;-70
2022/03/26 07:56:49;;;;;;;;;;;;;;;;;;5012516;28;1580;-70
2022/03/26 07:59:15;;;;;;;;;;;;;;;;;;5011565;28;1121;-69
2022/03/26 08:01:41;;;;;;;;;;;;;;;;;;5011744;28;1007;-69
2022/03/26 08:04:09;;;;;;;;;;;;;;;;;;5011453;28;1298;-70
2022/03/26 08:06:35;;;;;;;;;;;;;;;;;;5021003;28;1584;-69
2022/03/26 08:09:01;;;;;;;;;;;;;;;;;;5017115;28;1528;-69
2022/03/26 08:11:27;;;;;;;;;;;;;;;;;;5017909;28;1599;-69
2022/03/26 08:13:54;;;;;;;;;;;;;;;;;;5013258;28;1973;-69
2022/03/26 08:16:20;;;;;;;;;;;;;;;;;;5011494;28;1321;-69
2022/03/26 08:18:46;;;;;;;;;;;;;;;;;;5027081;28;1002;-69
2022/03/26 08:21:14;;;;;;;;;;;;;;;;;;5018275;28;2150;-70
2022/03/26 08:23:40;;;;;;;;;;;;;;;;;;5050748;28;1409;-70
2022/03/26 08:26:23;;;;;;;;;;;;;;;;;;5050484;28;959;-68
2022/03/26 08:28:49;;;;;;;;;;;;;;;;;;5032668;28;959;-70
2022/03/26 08:31:15;;;;;;;;;;;;;;;;;;5033097;28;1483;-67
2022/03/26 08:33:41;;;;;;;;;;;;;;;;;;5011064;28;1906;-69
2022/03/26 08:36:08;;;;;;;;;;;;;;;;;;5010587;28;880;-68
2022/03/26 08:38:35;;;;;;;;;;;;;;;;;;5010926;28;1008;-69
2022/03/26 08:41:02;;;;;;;;;;;;;;;;;;5010953;28;1007;-69
2022/03/26 08:43:28;;;;;;;;;;;;;;;;;;5010781;28;1343;-69
2022/03/26 08:45:54;;;;;;;;;;;;;;;;;;5010645;28;1097;-69
2022/03/26 08:48:20;;;;;;;;;;;;;;;;;;5010195;28;963;-69
2022/03/26 08:50:47;;;;;;;;;;;;;;;;;;5010791;28;1145;-69
2022/03/26 08:53:13;;;;;;;;;;;;;;;;;;5027703;28;1959;-69
2022/03/26 08:55:41;;;;;;;;;;;;;;;;;;5038089;28;2032;-68
2022/03/26 08:58:07;;;;;;;;;;;;;;;;;;5024715;28;1234;-68
2022/03/26 09:00:34;;;;;;;;;;;;;;;;;;5030603;28;1070;-69
2022/03/26 09:03:00;;;;;;;;;;;;;;;;;;5030680;28;1377;-69
2022/03/26 09:05:27;;;;;;;;;;;;;;;;;;5030007;28;1073;-69
2022/03/26 09:07:53;;;;;;;;;;;;;;;;;;5030291;28;814;-68
2022/03/26 09:10:19;;;;;;;;;;;;;;;;;;5012804;28;1324;-68
2022/03/26 09:12:47;;;;;;;;;;;;;;;;;;5029559;28;1125;-69
2022/03/26 09:15:13;;;;;;;;;;;;;;;;;;5028307;28;1981;-68
2022/03/26 09:17:40;;;;;;;;;;;;;;;;;;5029048;28;1062;-68
2022/03/26 09:20:07;;;;;;;;;;;;;;;;;;5030163;28;1086;-68
2022/03/26 09:22:33;;;;;;;;;;;;;;;;;;5030341;28;1145;-69
2022/03/26 09:24:59;;;;;;;;;;;;;;;;;;5030177;28;1404;-69
2022/03/26 09:27:25;;;;;;;;;;;;;;;;;;5029891;28;1058;-69
2022/03/26 09:29:53;;;;;;;;;;;;;;;;;;5030054;28;951;-69
2022/03/26 09:32:19;;;;;;;;;;;;;;;;;;5030160;28;1074;-70
2022/03/26 09:34:45;;;;;;;;;;;;;;;;;;5030163;28;1910;-69
2022/03/26 09:37:13;;;;;;;;;;;;;;;;;;5012386;28;1304;-69
2022/03/26 09:39:39;;;;;;;;;;;;;;;;;;5032369;28;1055;-69
2022/03/26 09:42:05;;;;;;;;;;;;;;;;;;5033809;28;789;-69
2022/03/26 09:44:32;;;;;;;;;;;;;;;;;;5033684;28;1306;-69
2022/03/26 09:47:00;;;;;;;;;;;;;;;;;;5033016;28;1127;-69
2022/03/26 09:49:27;;;;;;;;;;;;;;;;;;5033655;28;1125;-69
2022/03/26 09:51:54;;;;;;;;;;;;;;;;;;5033568;28;840;-69
2022/03/26 09:54:20;;;;;;;;;;;;;;;;;;5033358;28;1910;-69
2022/03/26 09:56:46;;;;;;;;;;;;;;;;;;5033322;28;1106;-69
2022/03/26 09:59:13;;;;;;;;;;;;;;;;;;5033565;28;847;-69
2022/03/26 10:01:39;;;;;;;;;;;;;;;;;;5033549;28;1066;-70
2022/03/26 10:04:11;;;;;;;;;;;;;;;;;;5033165;28;1302;-69
2022/03/26 10:06:37;;;;;;;;;;;;;;;;;;5033393;28;868;-69
2022/03/26 10:09:03;;;;;;;;;;;;;;;;;;5033419;28;1098;-69
2022/03/26 10:11:31;;;;;;;;;;;;;;;;;;5033327;28;1057;-69
2022/03/26 10:13:57;;;;;;;;;;;;;;;;;;5033239;28;1968;-69
2022/03/26 10:16:24;;;;;;;;;;;;;;;;;;5032956;28;1061;-69
2022/03/26 10:18:50;;;;;;;;;;;;;;;;;;5033173;28;1042;-68
2022/03/26 10:21:18;;;;;;;;;;;;;;;;;;5033488;28;1126;-69
2022/03/26 10:23:45;;;;;;;;;;;;;;;;;;5033134;28;1268;-69
2022/03/26 10:26:12;;;;;;;;;;;;;;;;;;5050870;22;3683;-70
2022/03/26 10:28:40;;;;;;;;;;;;;;;;;;5054871;28;1593;-70
2022/03/26 10:34:03;;;;;;;;;;;;;;;;;;5032518;28;1977;-70
2022/03/26 10:36:31;;;;;;;;;;;;;;;;;;5032381;28;1282;-69
2022/03/26 10:38:57;;;;;;;;;;;;;;;;;;5015080;28;1357;-70
2022/03/26 10:41:23;;;;;;;;;;;;;;;;;;5032786;28;1173;-70
2022/03/26 10:43:49;;;;;;;;;;;;;;;;;;5034113;28;1139;-70
2022/03/26 10:46:23;;;;;;;;;;;;;;;;;;5072312;28;1329;-70
2022/03/26 10:48:49;;;;;;;;;;;;;;;;;;5072312;28;1069;-69
2022/03/26 10:51:15;;;;;;;;;;;;;;;;;;5070681;28;1322;-70
2022/03/26 10:53:44;;;;;;;;;;;;;;;;;;5072754;28;848;-71
2022/03/26 10:56:11;;;;;;;;;;;;;;;;;;5072056;28;1938;-70
2022/03/26 10:58:38;;;;;;;;;;;;;;;;;;5072154;28;848;-70
2022/03/26 11:01:04;;;;;;;;;;;;;;;;;;5072455;28;1121;-71
2022/03/26 11:03:30;;;;;;;;;;;;;;;;;;5072208;28;870;-70
2022/03/26 11:05:57;;;;;;;;;;;;;;;;;;5072134;28;1320;-70
2022/03/26 11:08:23;;;;;;;;;;;;;;;;;;5071874;28;1065;-70
2022/03/26 11:10:51;;;;;;;;;;;;;;;;;;5072092;28;1226;-70
2022/03/26 11:13:18;;;;;;;;;;;;;;;;;;5072070;28;813;-70
2022/03/26 11:15:46;;;;;;;;;;;;;;;;;;5071741;28;1922;-70
2022/03/26 11:18:31;;;;;;;;;;;;;;;;;;5071869;28;1065;-70
2022/03/26 11:21:08;;;;;;;;;;;;;;;;;;5066021;28;1182;-70
2022/03/26 11:23:39;;;;;;;;;;;;;;;;;;5051937;28;1122;-70
2022/03/26 11:26:20;;;;;;;;;;;;;;;;;;5051221;28;1404;-68
2022/03/26 11:28:51;;;;;;;;;;;;;;;;;;5049192;28;1337;-70
2022/03/26 11:31:19;;;;;;;;;;;;;;;;;;5051589;28;1301;-70
2022/03/26 11:33:47;;;;;;;;;;;;;;;;;;5051531;28;873;-69
2022/03/26 11:36:14;;;;;;;;;;;;;;;;;;5051189;28;1926;-69
2022/03/26 11:38:41;;;;;;;;;;;;;;;;;;5051693;28;1105;-69
2022/03/26 11:41:08;;;;;;;;;;;;;;;;;;5051444;28;1085;-68
2022/03/26 11:44:03;;;;;;;;;;;;;;;;;;5051381;28;1078;-68
2022/03/26 11:52:18;;;;;;;;;;;;;;;;;;5052932;28;1034;-70
2022/03/26 11:54:45;;;;;;;;;;;;;;;;;;5052783;28;1973;-69
2022/03/26 11:57:15;;;;;;;;;;;;;;;;;;5034400;28;1325;-69
2022/03/26 11:59:42;;;;;;;;;;;;;;;;;;5052165;28;1113;-69
2022/03/26 12:02:20;;;;;;;;;;;;;;;;;;5051629;28;765;-69
2022/03/26 12:04:50;;;;;;;;;;;;;;;;;;5051745;28;963;-69
2022/03/26 12:07:17;;;;;;;;;;;;;;;;;;5051379;28;1341;-70
2022/03/26 12:09:43;;;;;;;;;;;;;;;;;;5052097;28;1069;-69
2022/03/26 12:12:14;;;;;;;;;;;;;;;;;;5051423;28;1053;-68
2022/03/26 12:14:56;;;;;;;;;;;;;;;;;;5050781;28;1910;-69
2022/03/26 12:17:37;;;;;;;;;;;;;;;;;;5049941;28;1554;-69
2022/03/26 12:20:18;;;;;;;;;;;;;;;;;;5049817;28;1379;-69
2022/03/26 12:22:46;;;;;;;;;;;;;;;;;;5030933;28;959;-70
2022/03/26 12:25:16;;;;;;;;;;;;;;;;;;5033391;28;1493;-69
2022/03/26 12:27:42;;;;;;;;;;;;;;;;;;5030828;28;1427;-68
2022/03/26 12:30:09;;;;;;;;;;;;;;;;;;5030903;28;1070;-68
2022/03/26 12:32:36;;;;;;;;;;;;;;;;;;5013102;28;1178;-69
2022/03/26 12:35:05;;;;;;;;;;;;;;;;;;5031232;28;1914;-69
2022/03/26 12:37:31;;;;;;;;;;;;;;;;;;5012704;28;1879;-69
2022/03/26 12:39:59;;;;;;;;;;;;;;;;;;5031196;28;934;-69
2022/03/26 12:42:25;;;;;;;;;;;;;;;;;;5030831;28;784;-69
2022/03/26 12:44:52;;;;;;;;;;;;;;;;;;5030948;28;793;-69
2022/03/26 12:47:18;;;;;;;;;;;;;;;;;;5030500;28;1397;-68
2022/03/26 12:49:45;;;;;;;;;;;;;;;;;;5030761;28;1070;-68
2022/03/26 12:52:11;;;;;;;;;;;;;;;;;;5030509;28;1122;-70
2022/03/26 12:54:38;;;;;;;;;;;;;;;;;;5045504;28;1271;-68
2022/03/26 12:57:05;;;;;;;;;;;;;;;;;;5050123;28;1910;-69
2022/03/26 12:59:30;;;;;;;;;;;;;;;;;;5050386;28;1110;-69
2022/03/26 13:01:57;;;;;;;;;;;;;;;;;;5050520;28;844;-69
2022/03/26 13:04:24;;;;;;;;;;;;;;;;;;5050552;28;1066;-69
2022/03/26 13:06:53;;;;;;;;;;;;;;;;;;5026549;28;1402;-69
2022/03/26 13:09:19;;;;;;;;;;;;;;;;;;5041121;28;1236;-69
2022/03/26 13:11:45;;;;;;;;;;;;;;;;;;5050126;28;1074;-70
2022/03/26 13:14:13;;;;;;;;;;;;;;;;;;5051163;28;1862;-69
2022/03/26 13:16:39;;;;;;;;;;;;;;;;;;5053241;28;1977;-69
2022/03/26 13:19:05;;;;;;;;;;;;;;;;;;5054228;28;1073;-69
2022/03/26 13:21:32;;;;;;;;;;;;;;;;;;5064509;28;1166;-69
2022/03/26 13:23:59;;;;;;;;;;;;;;;;;;5075036;28;895;-69
2022/03/26 13:26:41;;;;;;;;;;;;;;;;;;5073618;28;1405;-69
2022/03/26 13:29:09;;;;;;;;;;;;;;;;;;5073869;28;1001;-69
2022/03/26 13:31:36;;;;;;;;;;;;;;;;;;5055505;28;1281;-69
2022/03/26 13:34:09;;;;;;;;;;;;;;;;;;5073442;28;1900;-69
2022/03/26 13:36:35;;;;;;;;;;;;;;;;;;5073452;28;1965;-70
2022/03/26 13:39:02;;;;;;;;;;;;;;;;;;5073630;28;978;-70
2022/03/26 13:41:28;;;;;;;;;;;;;;;;;;5072272;28;1849;-69
2022/03/26 13:43:55;;;;;;;;;;;;;;;;;;5073496;28;938;-69
2022/03/26 13:46:21;;;;;;;;;;;;;;;;;;5073507;28;1325;-69
2022/03/26 13:48:49;;;;;;;;;;;;;;;;;;5073542;28;1065;-69
2022/03/26 13:51:15;;;;;;;;;;;;;;;;;;5073701;28;867;-69
2022/03/26 13:53:42;;;;;;;;;;;;;;;;;;5073529;28;1160;-69
2022/03/26 13:56:09;;;;;;;;;;;;;;;;;;5073003;28;1914;-69
2022/03/26 13:58:35;;;;;;;;;;;;;;;;;;5073388;28;963;-70
2022/03/26 14:01:04;;;;;;;;;;;;;;;;;;5073542;28;1065;-70
2022/03/26 14:03:31;;;;;;;;;;;;;;;;;;5073228;28;1006;-69
2022/03/26 14:05:59;;;;;;;;;;;;;;;;;;5072729;28;1837;-69
2022/03/26 14:08:25;;;;;;;;;;;;;;;;;;5072679;28;1081;-69
2022/03/26 14:10:51;;;;;;;;;;;;;;;;;;5073291;28;713;-69
2022/03/26 14:13:18;;;;;;;;;;;;;;;;;;5073257;28;1116;-69
2022/03/26 14:15:49;;;;;;;;;;;;;;;;;;5073049;28;1973;-69
2022/03/26 14:18:15;;;;;;;;;;;;;;;;;;5072853;28;1132;-68
2022/03/26 14:20:41;;;;;;;;;;;;;;;;;;5069512;28;1159;-69
2022/03/26 14:23:10;;;;;;;;;;;;;;;;;;5052779;28;1066;-69
2022/03/26 14:25:37;;;;;;;;;;;;;;;;;;5044462;28;1496;-68
2022/03/26 14:28:04;;;;;;;;;;;;;;;;;;5032559;28;860;-69
2022/03/26 14:30:30;;;;;;;;;;;;;;;;;;5033106;28;880;-68
2022/03/26 14:32:57;;;;;;;;;;;;;;;;;;5033021;28;769;-69
2022/03/26 14:35:23;;;;;;;;;;;;;;;;;;5032844;28;1918;-68
2022/03/26 14:37:49;;;;;;;;;;;;;;;;;;5032510;28;1339;-68
2022/03/26 14:40:17;;;;;;;;;;;;;;;;;;5045505;28;1597;-67
2022/03/26 14:42:43;;;;;;;;;;;;;;;;;;5052246;28;1110;-68
2022/03/26 14:45:12;;;;;;;;;;;;;;;;;;5034503;28;1633;-68
2022/03/26 14:47:38;;;;;;;;;;;;;;;;;;5051986;28;1339;-68
2022/03/26 14:50:05;;;;;;;;;;;;;;;;;;5052172;28;608;-68
2022/03/26 14:52:31;;;;;;;;;;;;;;;;;;5031916;28;1662;-67
2022/03/26 14:54:57;;;;;;;;;;;;;;;;;;5051811;28;1396;-67
2022/03/26 14:57:24;;;;;;;;;;;;;;;;;;5045632;28;1918;-67
2022/03/26 14:59:51;;;;;;;;;;;;;;;;;;5071922;28;1149;-67
2022/03/26 15:02:17;;;;;;;;;;;;;;;;;;5072125;28;1098;-67
2022/03/26 15:04:43;;;;;;;;;;;;;;;;;;5072413;28;793;-67
2022/03/26 15:07:10;;;;;;;;;;;;;;;;;;5071543;28;1304;-67
2022/03/26 15:09:36;;;;;;;;;;;;;;;;;;5071743;28;1136;-67
2022/03/26 15:12:03;;;;;;;;;;;;;;;;;;5056702;28;1217;-68
2022/03/26 15:14:30;;;;;;;;;;;;;;;;;;5034238;28;1417;-68
2022/03/26 15:16:57;;;;;;;;;;;;;;;;;;5051245;28;1985;-68
2022/03/26 15:19:23;;;;;;;;;;;;;;;;;;5051873;28;1115;-68
2022/03/26 15:21:50;;;;;;;;;;;;;;;;;;5052282;28;1073;-68
2022/03/26 15:24:16;;;;;;;;;;;;;;;;;;5052027;28;1025;-68
2022/03/26 15:26:43;;;;;;;;;;;;;;;;;;5051156;28;1381;-68
2022/03/26 15:29:09;;;;;;;;;;;;;;;;;;5051748;28;883;-67
2022/03/26 15:31:38;;;;;;;;;;;;;;;;;;5051684;28;879;-68
2022/03/26 15:34:04;;;;;;;;;;;;;;;;;;5051731;28;1089;-68
2022/03/26 15:36:30;;;;;;;;;;;;;;;;;;5050370;28;1915;-67
2022/03/26 15:38:56;;;;;;;;;;;;;;;;;;5051276;28;1129;-67
2022/03/26 15:41:22;;;;;;;;;;;;;;;;;;5051662;28;848;-67
2022/03/26 15:43:49;;;;;;;;;;;;;;;;;;5051383;28;1125;-67
2022/03/26 15:46:15;;;;;;;;;;;;;;;;;;5051152;28;1307;-68
2022/03/26 15:48:42;;;;;;;;;;;;;;;;;;5067175;28;1194;-68
2022/03/26 15:51:10;;;;;;;;;;;;;;;;;;5071164;28;1069;-68
2022/03/26 15:53:37;;;;;;;;;;;;;;;;;;5071266;28;845;-68
2022/03/26 15:56:03;;;;;;;;;;;;;;;;;;5070605;28;1993;-67
2022/03/26 15:58:29;;;;;;;;;;;;;;;;;;5071062;28;1006;-67
2022/03/26 16:00:55;;;;;;;;;;;;;;;;;;5070949;28;1057;-68
2022/03/26 16:03:21;;;;;;;;;;;;;;;;;;5071064;28;848;-67
2022/03/26 16:05:49;;;;;;;;;;;;;;;;;;5071473;28;1402;-69
2022/03/26 16:08:15;;;;;;;;;;;;;;;;;;5070744;28;1338;-68
2022/03/26 16:10:41;;;;;;;;;;;;;;;;;;5070672;28;1081;-68
2022/03/26 16:13:08;;;;;;;;;;;;;;;;;;5071125;28;1010;-68
2022/03/26 16:15:34;;;;;;;;;;;;;;;;;;5070736;28;1314;-68
2022/03/26 16:18:00;;;;;;;;;;;;;;;;;;5070635;28;1975;-68
2022/03/26 16:20:26;;;;;;;;;;;;;;;;;;5070849;28;1057;-67
2022/03/26 16:22:54;;;;;;;;;;;;;;;;;;5070794;28;1069;-68
2022/03/26 16:25:20;;;;;;;;;;;;;;;;;;5070843;28;852;-68
2022/03/26 16:27:48;;;;;;;;;;;;;;;;;;5079387;22;2074;-68
2022/03/26 16:30:15;;;;;;;;;;;;;;;;;;5048476;28;1309;-68
2022/03/26 16:32:41;;;;;;;;;;;;;;;;;;5050582;28;1209;-69
2022/03/26 16:35:07;;;;;;;;;;;;;;;;;;5050483;28;1143;-70
2022/03/26 16:37:33;;;;;;;;;;;;;;;;;;5050030;28;1918;-69
2022/03/26 16:40:01;;;;;;;;;;;;;;;;;;5050188;28;800;-68
2022/03/26 16:42:27;;;;;;;;;;;;;;;;;;5050638;28;932;-68
2022/03/26 16:44:53;;;;;;;;;;;;;;;;;;5050714;28;1073;-68
2022/03/26 16:47:20;;;;;;;;;;;;;;;;;;5069534;28;1385;-68
2022/03/26 16:49:46;;;;;;;;;;;;;;;;;;5077238;28;1066;-68
2022/03/26 16:52:12;;;;;;;;;;;;;;;;;;5076919;28;931;-68
2022/03/26 16:54:38;;;;;;;;;;;;;;;;;;5077159;28;1133;-69
2022/03/26 16:57:07;;;;;;;;;;;;;;;;;;5076820;28;1908;-69
2022/03/26 16:59:33;;;;;;;;;;;;;;;;;;5075955;28;1689;-68
2022/03/26 17:01:59;;;;;;;;;;;;;;;;;;5035621;28;976;-68
2022/03/26 17:04:25;;;;;;;;;;;;;;;;;;5055036;28;1137;-69
2022/03/26 17:06:51;;;;;;;;;;;;;;;;;;5054172;28;1364;-68
2022/03/26 17:09:18;;;;;;;;;;;;;;;;;;5055110;28;1034;-68
2022/03/26 17:11:44;;;;;;;;;;;;;;;;;;5054620;28;1077;-68